Time;durP1;ratioP1;P1;durP2;ratioP2;P2;SDS_P1;SDS_P2;PMS_P1;PMS_P2;Temp;Humidity;BMP_temperature;BMP_pressure;BME280_temperature;BME280_humidity;BME280_pressure;Samples;Min_cycle;Max_cycle;Signal;HPM_P1;HPM_P2
2023/11/11 00:00:16;;;;;;;1.57;0.83;;;10.70;84.40;;;;;;5064869;28;20438;-48
2023/11/11 00:02:47;;;;;;;3.30;1.50;;;10.70;85.50;;;;;;5063019;28;20496;-46
2023/11/11 00:05:15;;;;;;;1.70;1.10;;;10.70;84.30;;;;;;5064927;28;20952;-46
2023/11/11 00:07:46;;;;;;;2.00;0.90;;;10.70;84.30;;;;;;5064358;28;20503;-47
2023/11/11 00:10:14;;;;;;;1.50;1.13;;;10.80;84.30;;;;;;5062316;28;20454;-48
2023/11/11 00:12:43;;;;;;;1.90;1.07;;;10.70;84.30;;;;;;5062874;28;20634;-48
2023/11/11 00:15:11;;;;;;;2.13;1.00;;;10.70;84.40;;;;;;5063362;28;20492;-46
2023/11/11 00:17:39;;;;;;;4.00;2.00;;;10.70;85.50;;;;;;5059776;28;20450;-47
2023/11/11 00:20:12;;;;;;;2.73;1.73;;;10.70;84.20;;;;;;5061598;28;20542;-48
2023/11/11 00:22:43;;;;;;;1.93;1.53;;;10.70;84.40;;;;;;5060958;28;21641;-48
2023/11/11 00:25:16;;;;;;;1.60;1.30;;;10.70;84.60;;;;;;5059541;28;20443;-49
2023/11/11 00:27:44;;;;;;;1.63;1.13;;;10.70;84.50;;;;;;5060288;28;20463;-48
2023/11/11 00:30:14;;;;;;;1.80;1.27;;;10.70;84.40;;;;;;5062761;28;20428;-49
2023/11/11 00:32:48;;;;;;;2.93;1.67;;;10.70;84.50;;;;;;5060137;28;20826;-49
2023/11/11 00:35:16;;;;;;;2.57;1.50;;;10.70;84.50;;;;;;5061084;28;20444;-47
2023/11/11 00:37:45;;;;;;;3.50;1.60;;;10.70;84.30;;;;;;5057989;28;20554;-46
2023/11/11 00:40:15;;;;;;;2.33;1.60;;;10.70;84.70;;;;;;5057660;28;20530;-49
2023/11/11 00:42:45;;;;;;;3.20;2.03;;;10.70;84.50;;;;;;5060318;28;20467;-48
2023/11/11 00:45:14;;;;;;;1.87;1.60;;;10.70;84.70;;;;;;5063470;28;20446;-48
2023/11/11 00:47:42;;;;;;;2.93;2.03;;;10.70;84.70;;;;;;5058890;28;20454;-48
2023/11/11 00:50:11;;;;;;;2.50;1.70;;;10.70;84.70;;;;;;5059702;28;20963;-46
2023/11/11 00:52:39;;;;;;;2.50;1.53;;;10.70;84.60;;;;;;5061153;28;20447;-49
2023/11/11 00:55:09;;;;;;;1.90;1.30;;;10.70;84.70;;;;;;5058516;28;20844;-49
2023/11/11 00:57:40;;;;;;;3.10;1.93;;;10.70;84.70;;;;;;5058252;28;20789;-47
2023/11/11 01:00:13;;;;;;;1.70;1.27;;;10.70;84.70;;;;;;5065638;28;20435;-46
2023/11/11 01:02:41;;;;;;;2.00;1.50;;;10.70;84.60;;;;;;5057376;28;20473;-49
2023/11/11 01:05:11;;;;;;;3.10;1.67;;;10.70;84.60;;;;;;5060494;28;20521;-45
2023/11/11 01:07:45;;;;;;;2.90;1.40;;;10.70;84.60;;;;;;5055555;28;20450;-49
2023/11/11 01:10:18;;;;;;;2.30;1.60;;;10.70;84.40;;;;;;5057517;28;20450;-47
2023/11/11 01:12:47;;;;;;;2.20;2.00;;;10.70;84.60;;;;;;5057722;28;20456;-49
2023/11/11 01:15:16;;;;;;;2.33;1.30;;;10.70;84.80;;;;;;5057301;28;20442;-48
2023/11/11 01:17:44;;;;;;;3.63;1.90;;;10.70;84.70;;;;;;5055849;28;20469;-48
2023/11/11 01:20:15;;;;;;;2.90;1.63;;;10.70;84.70;;;;;;5055899;28;20438;-47
2023/11/11 01:22:43;;;;;;;3.93;2.30;;;10.70;84.60;;;;;;5059989;28;20467;-47
2023/11/11 01:25:12;;;;;;;2.73;1.47;;;10.70;84.70;;;;;;5053250;28;20943;-45
2023/11/11 01:27:40;;;;;;;2.87;2.03;;;10.70;84.80;;;;;;5063828;28;20463;-49
2023/11/11 01:30:12;;;;;;;2.53;1.57;;;10.70;84.80;;;;;;5062207;28;20453;-49
2023/11/11 01:32:46;;;;;;;4.00;2.13;;;10.70;84.80;;;;;;5060144;28;20569;-46
2023/11/11 01:35:14;;;;;;;2.17;1.40;;;10.70;84.90;;;;;;5055407;28;20442;-48
2023/11/11 01:37:43;;;;;;;1.57;1.20;;;10.70;84.80;;;;;;5059259;28;20463;-46
2023/11/11 01:40:12;;;;;;;3.03;2.60;;;10.70;84.70;;;;;;5062393;28;20820;-46
2023/11/11 01:42:40;;;;;;;2.10;1.37;;;10.70;85.00;;;;;;5053908;28;20467;-48
2023/11/11 01:45:10;;;;;;;3.13;2.00;;;10.70;85.10;;;;;;5055409;28;20449;-50
2023/11/11 01:47:38;;;;;;;2.90;2.53;;;10.70;85.10;;;;;;5055794;28;20482;-49
2023/11/11 01:50:09;;;;;;;2.77;1.70;;;10.70;85.00;;;;;;5055907;28;20435;-47
2023/11/11 01:52:38;;;;;;;2.87;2.10;;;10.70;85.00;;;;;;5055165;28;20699;-46
2023/11/11 01:55:07;;;;;;;2.83;1.90;;;10.70;85.10;;;;;;5054620;28;20528;-45
2023/11/11 01:57:36;;;;;;;2.60;2.10;;;10.70;85.00;;;;;;5055908;28;21002;-46
2023/11/11 02:00:12;;;;;;;3.00;2.10;;;10.70;85.20;;;;;;5055699;28;20435;-46
2023/11/11 02:02:41;;;;;;;2.53;2.30;;;10.70;85.00;;;;;;5062328;28;20470;-45
2023/11/11 02:05:10;;;;;;;3.90;2.63;;;10.70;85.00;;;;;;5060346;28;20509;-47
2023/11/11 02:07:38;;;;;;;3.00;1.93;;;10.70;85.10;;;;;;5061766;28;20549;-45
2023/11/11 02:10:07;;;;;;;2.20;1.80;;;10.70;86.30;;;;;;5058729;28;20496;-47
2023/11/11 02:12:36;;;;;;;3.50;2.50;;;10.60;84.90;;;;;;5061643;28;20459;-45
2023/11/11 02:15:05;;;;;;;3.00;2.27;;;10.70;85.00;;;;;;5062538;28;20438;-46
2023/11/11 02:17:33;;;;;;;2.80;2.43;;;10.60;84.90;;;;;;5054044;28;20447;-46
2023/11/11 02:20:04;;;;;;;2.63;2.07;;;10.70;85.00;;;;;;5063992;28;20511;-48
2023/11/11 02:22:32;;;;;;;3.50;2.10;;;10.70;86.30;;;;;;5058668;28;20467;-45
2023/11/11 02:25:04;;;;;;;2.67;1.77;;;10.60;84.90;;;;;;5061582;28;20506;-48
2023/11/11 02:27:32;;;;;;;2.83;2.30;;;10.60;85.10;;;;;;5062486;28;20954;-47
2023/11/11 02:30:02;;;;;;;2.40;1.70;;;10.60;85.10;;;;;;5061389;28;20461;-48
2023/11/11 02:32:32;;;;;;;3.20;2.10;;;10.60;85.00;;;;;;5062166;27;20489;-45
2023/11/11 02:35:01;;;;;;;2.40;2.00;;;10.60;85.00;;;;;;5057212;28;20442;-48
2023/11/11 02:37:29;;;;;;;2.50;2.17;;;10.70;85.10;;;;;;5060216;28;20447;-49
2023/11/11 02:39:59;;;;;;;5.90;2.43;;;10.60;85.00;;;;;;5057621;28;20465;-48
2023/11/11 02:42:31;;;;;;;2.50;1.87;;;10.60;85.00;;;;;;5060658;28;20463;-49
2023/11/11 02:44:59;;;;;;;2.67;1.83;;;10.60;84.90;;;;;;5067094;28;20432;-50
2023/11/11 02:47:27;;;;;;;2.60;2.00;;;10.60;85.00;;;;;;5063980;28;20789;-49
2023/11/11 02:49:55;;;;;;;3.77;2.20;;;10.60;85.00;;;;;;5059559;28;20493;-49
2023/11/11 02:52:23;;;;;;;2.40;2.10;;;10.60;85.00;;;;;;5068802;28;20850;-49
2023/11/11 02:54:52;;;;;;;2.40;1.87;;;10.70;85.10;;;;;;5061574;28;20434;-49
2023/11/11 02:57:20;;;;;;;2.30;2.00;;;10.60;84.90;;;;;;5061569;28;20451;-47
2023/11/11 02:59:49;;;;;;;2.80;2.10;;;10.60;85.00;;;;;;5064277;28;20947;-48
2023/11/11 03:02:17;;;;;;;3.20;2.10;;;10.60;84.90;;;;;;5063987;28;20422;-48
2023/11/11 03:04:45;;;;;;;3.30;1.77;;;10.60;85.00;;;;;;5065342;28;20438;-48
2023/11/11 03:07:13;;;;;;;2.23;1.63;;;10.60;84.90;;;;;;5064257;28;20443;-47
2023/11/11 03:09:41;;;;;;;3.27;1.80;;;10.60;85.00;;;;;;5065319;28;20900;-48
2023/11/11 03:12:11;;;;;;;3.47;1.80;;;10.60;84.90;;;;;;5067745;28;20948;-49
2023/11/11 03:14:40;;;;;;;3.63;1.80;;;10.60;85.00;;;;;;5065038;28;20784;-46
2023/11/11 03:17:10;;;;;;;2.20;1.60;;;10.60;85.10;;;;;;5066585;28;20842;-50
2023/11/11 03:19:38;;;;;;;2.03;1.77;;;10.60;85.00;;;;;;5067403;28;20462;-48
2023/11/11 03:22:06;;;;;;;3.40;2.07;;;10.60;85.00;;;;;;5070475;28;20453;-49
2023/11/11 03:24:34;;;;;;;2.07;1.47;;;10.60;85.20;;;;;;5064403;28;20470;-49
2023/11/11 03:27:02;;;;;;;2.33;1.20;;;10.60;85.10;;;;;;5070088;28;20508;-48
2023/11/11 03:29:30;;;;;;;3.73;2.13;;;10.60;85.20;;;;;;5068808;28;20540;-48
2023/11/11 03:31:58;;;;;;;1.93;1.50;;;10.60;85.20;;;;;;5066451;28;20496;-49
2023/11/11 03:34:28;;;;;;;2.50;1.87;;;10.60;85.20;;;;;;5065265;28;20467;-46
2023/11/11 03:36:56;;;;;;;2.10;1.30;;;10.60;85.20;;;;;;5069046;28;20805;-46
2023/11/11 03:39:25;;;;;;;2.50;2.00;;;10.60;85.20;;;;;;5063624;28;20507;-48
2023/11/11 03:41:53;;;;;;;1.60;1.30;;;10.60;85.20;;;;;;5068036;28;20439;-46
2023/11/11 03:44:21;;;;;;;2.23;1.27;;;10.60;85.20;;;;;;5067028;28;21136;-49
2023/11/11 03:46:49;;;;;;;2.57;1.80;;;10.60;85.10;;;;;;5069153;28;20801;-49
2023/11/11 03:49:18;;;;;;;3.10;1.20;;;10.60;85.20;;;;;;5066706;28;20486;-47
2023/11/11 03:51:47;;;;;;;2.30;1.43;;;10.60;85.20;;;;;;5066185;28;20432;-47
2023/11/11 03:54:16;;;;;;;4.00;1.17;;;10.60;85.30;;;;;;5053770;28;20476;-46
2023/11/11 03:56:46;;;;;;;2.27;1.20;;;10.60;85.30;;;;;;5064630;28;20460;-48
2023/11/11 03:59:14;;;;;;;2.40;1.70;;;10.60;85.30;;;;;;5066144;28;20552;-50
2023/11/11 04:01:42;;;;;;;1.70;1.00;;;10.60;85.40;;;;;;5065632;28;20423;-47
2023/11/11 04:04:12;;;;;;;2.30;1.53;;;10.60;85.30;;;;;;5063269;28;20502;-46
2023/11/11 04:06:42;;;;;;;1.67;1.27;;;10.60;85.20;;;;;;5063605;28;20502;-47
2023/11/11 04:09:12;;;;;;;2.23;1.20;;;10.60;85.30;;;;;;5064446;28;20502;-46
2023/11/11 04:11:41;;;;;;;2.50;1.00;;;10.60;85.30;;;;;;5063980;28;20447;-47
2023/11/11 04:14:10;;;;;;;4.17;1.00;;;10.60;85.30;;;;;;5064083;28;20458;-49
2023/11/11 04:16:38;;;;;;;2.07;1.47;;;10.50;85.20;;;;;;5061984;28;20490;-49
2023/11/11 04:19:08;;;;;;;2.00;1.20;;;10.50;85.20;;;;;;5060710;28;20543;-47
2023/11/11 04:21:36;;;;;;;1.77;1.43;;;10.60;85.30;;;;;;5064097;28;20426;-48
2023/11/11 04:24:05;;;;;;;1.80;1.00;;;10.50;85.20;;;;;;5057683;28;21204;-48
2023/11/11 04:26:35;;;;;;;1.60;1.17;;;10.50;85.20;;;;;;5062322;28;20442;-47
2023/11/11 04:29:03;;;;;;;2.27;1.13;;;10.50;85.20;;;;;;5065115;28;20470;-48
2023/11/11 04:31:32;;;;;;;1.70;0.90;;;10.60;85.20;;;;;;5064224;28;20981;-47
2023/11/11 04:34:00;;;;;;;2.73;1.30;;;10.50;85.10;;;;;;5061794;28;20643;-48
2023/11/11 04:36:32;;;;;;;3.10;0.90;;;10.50;85.10;;;;;;5061340;28;20545;-49
2023/11/11 04:39:03;;;;;;;2.70;1.20;;;10.50;85.10;;;;;;5060457;28;20563;-47
2023/11/11 04:41:40;;;;;;;1.60;1.00;;;10.60;85.20;;;;;;5062198;28;20449;-49
2023/11/11 04:44:09;;;;;;;2.77;1.20;;;10.50;85.00;;;;;;5060208;28;20471;-47
2023/11/11 04:46:38;;;;;;;1.80;1.30;;;10.50;85.00;;;;;;5060924;28;20695;-47
2023/11/11 04:49:06;;;;;;;1.43;1.07;;;10.60;85.20;;;;;;5061343;28;20565;-46
2023/11/11 04:51:35;;;;;;;1.40;0.83;;;10.60;86.40;;;;;;5061060;28;20431;-47
2023/11/11 04:54:04;;;;;;;1.80;1.10;;;10.50;85.00;;;;;;5058220;28;20557;-48
2023/11/11 04:56:33;;;;;;;1.80;1.10;;;10.50;85.10;;;;;;5062035;28;20470;-48
2023/11/11 04:59:04;;;;;;;1.47;0.90;;;10.60;85.00;;;;;;5063450;28;20475;-47
2023/11/11 05:01:32;;;;;;;1.87;1.00;;;10.50;85.00;;;;;;5061079;28;20433;-47
2023/11/11 05:04:00;;;;;;;5.10;1.07;;;10.50;84.90;;;;;;5059349;28;20568;-49
2023/11/11 05:06:28;;;;;;;2.47;1.30;;;10.60;85.00;;;;;;5061804;28;20468;-47
2023/11/11 05:08:57;;;;;;;1.70;0.87;;;10.60;84.90;;;;;;5060573;28;20806;-49
2023/11/11 05:11:25;;;;;;;3.20;1.67;;;10.50;84.80;;;;;;5057946;28;20444;-46
2023/11/11 05:13:53;;;;;;;2.83;1.30;;;10.50;85.00;;;;;;5059579;28;20498;-48
2023/11/11 05:16:39;;;;;;;2.10;0.93;;;10.50;85.00;;;;;;5059456;28;20531;-46
2023/11/11 05:19:08;;;;;;;1.87;1.23;;;10.50;85.00;;;;;;5058963;28;20559;-47
2023/11/11 05:21:38;;;;;;;2.53;1.20;;;10.50;85.10;;;;;;5057685;28;20468;-46
2023/11/11 05:24:08;;;;;;;2.20;1.43;;;10.50;85.00;;;;;;5057110;28;20485;-47
2023/11/11 05:26:43;;;;;;;2.17;1.03;;;10.50;85.00;;;;;;5062720;28;20545;-49
2023/11/11 05:29:11;;;;;;;2.93;1.30;;;10.50;85.00;;;;;;5055796;28;20462;-47
2023/11/11 05:31:40;;;;;;;1.93;1.20;;;10.50;84.90;;;;;;5061076;28;20922;-48
2023/11/11 05:34:09;;;;;;;2.00;1.37;;;10.50;85.00;;;;;;5061553;28;20465;-48
2023/11/11 05:36:38;;;;;;;2.10;1.50;;;10.50;84.90;;;;;;5059704;28;20553;-47
2023/11/11 05:39:07;;;;;;;1.80;1.23;;;10.50;85.00;;;;;;5057044;28;20481;-49
2023/11/11 05:41:37;;;;;;;2.03;1.53;;;10.50;84.90;;;;;;5057659;28;20971;-47
2023/11/11 05:44:06;;;;;;;2.20;1.30;;;10.50;84.90;;;;;;5060246;28;21011;-46
2023/11/11 05:46:34;;;;;;;1.60;1.40;;;10.50;84.80;;;;;;5055925;28;20458;-47
2023/11/11 05:49:04;;;;;;;2.33;1.33;;;10.50;84.80;;;;;;5056784;28;20855;-47
2023/11/11 05:51:32;;;;;;;2.10;1.40;;;10.50;84.80;;;;;;5063369;28;20436;-47
2023/11/11 05:54:02;;;;;;;1.50;1.23;;;10.50;84.80;;;;;;5057590;28;20485;-49
2023/11/11 05:56:33;;;;;;;3.43;1.70;;;10.50;84.80;;;;;;5054090;28;20455;-46
2023/11/11 05:59:01;;;;;;;1.90;1.10;;;10.50;84.80;;;;;;5060374;28;20478;-46
2023/11/11 06:01:29;;;;;;;2.20;1.30;;;10.50;84.80;;;;;;5058983;28;20522;-47
2023/11/11 06:03:57;;;;;;;2.63;1.67;;;10.50;84.70;;;;;;5058836;28;20503;-48
2023/11/11 06:06:27;;;;;;;3.57;1.60;;;10.50;84.80;;;;;;5054655;28;20454;-47
2023/11/11 06:08:55;;;;;;;2.23;1.10;;;10.50;84.80;;;;;;5059705;28;20474;-47
2023/11/11 06:11:23;;;;;;;2.43;1.17;;;10.50;84.60;;;;;;5058513;28;20430;-47
2023/11/11 06:13:54;;;;;;;3.93;1.47;;;10.50;84.70;;;;;;5065302;28;20573;-49
2023/11/11 06:16:22;;;;;;;2.90;1.20;;;10.50;84.60;;;;;;5065409;28;20450;-47
2023/11/11 06:18:50;;;;;;;2.30;1.50;;;10.50;84.60;;;;;;5060055;28;20607;-48
2023/11/11 06:21:18;;;;;;;1.87;1.23;;;10.50;84.60;;;;;;5065997;28;20427;-48
2023/11/11 06:23:48;;;;;;;2.57;2.03;;;10.50;84.60;;;;;;5069759;28;20465;-46
2023/11/11 06:26:17;;;;;;;2.53;1.70;;;10.50;84.50;;;;;;5061806;28;20471;-45
2023/11/11 06:28:47;;;;;;;2.80;1.30;;;10.40;84.20;;;;;;5065143;28;20493;-47
2023/11/11 06:31:15;;;;;;;3.30;1.53;;;10.40;84.40;;;;;;5066149;28;20437;-45
2023/11/11 06:33:43;;;;;;;2.00;1.33;;;10.40;84.40;;;;;;5063232;28;20466;-45
2023/11/11 06:36:13;;;;;;;2.37;1.83;;;10.40;84.20;;;;;;5060777;28;20477;-46
2023/11/11 06:38:41;;;;;;;2.13;1.40;;;10.40;84.20;;;;;;5063757;28;20509;-46
2023/11/11 06:41:11;;;;;;;2.00;1.43;;;10.40;84.40;;;;;;5064222;28;20438;-46
2023/11/11 06:43:40;;;;;;;1.90;1.40;;;10.40;84.50;;;;;;5064003;28;20470;-46
2023/11/11 06:46:08;;;;;;;2.10;1.40;;;10.40;84.40;;;;;;5065565;28;20882;-46
2023/11/11 06:48:36;;;;;;;2.67;1.93;;;10.40;84.40;;;;;;5065815;28;20489;-46
2023/11/11 06:51:05;;;;;;;3.80;1.87;;;10.40;84.40;;;;;;5066615;28;20456;-47
2023/11/11 06:53:33;;;;;;;3.63;1.90;;;10.40;84.30;;;;;;5065677;28;20482;-46
2023/11/11 06:56:03;;;;;;;2.60;1.30;;;10.40;84.50;;;;;;5067107;28;21028;-46
2023/11/11 06:58:35;;;;;;;2.73;1.70;;;10.40;84.40;;;;;;5063003;28;20529;-45
2023/11/11 07:01:05;;;;;;;3.77;2.27;;;10.40;84.30;;;;;;5066389;28;20419;-47
2023/11/11 07:03:35;;;;;;;2.23;1.40;;;10.40;84.30;;;;;;5063862;28;20469;-46
2023/11/11 07:06:05;;;;;;;4.07;1.83;;;10.40;84.20;;;;;;5066084;28;20474;-45
2023/11/11 07:08:36;;;;;;;2.50;1.50;;;10.40;84.30;;;;;;5067158;28;20968;-47
2023/11/11 07:11:06;;;;;;;3.70;2.00;;;10.40;84.40;;;;;;5063678;28;20434;-47
2023/11/11 07:13:35;;;;;;;4.60;2.80;;;10.40;84.40;;;;;;5063849;28;20990;-45
2023/11/11 07:16:05;;;;;;;6.10;2.60;;;10.40;84.30;;;;;;5068287;28;20986;-46
2023/11/11 07:18:35;;;;;;;1.90;1.30;;;10.40;84.20;;;;;;5061914;28;20822;-45
2023/11/11 07:21:04;;;;;;;4.23;2.50;;;10.40;84.30;;;;;;5065846;28;20508;-46
2023/11/11 07:23:33;;;;;;;3.30;2.30;;;10.40;84.30;;;;;;5065858;28;20833;-45
2023/11/11 07:26:04;;;;;;;5.90;2.37;;;10.40;84.20;;;;;;5064985;28;20524;-46
2023/11/11 07:28:32;;;;;;;3.83;1.43;;;10.40;84.20;;;;;;5063786;28;20458;-45
2023/11/11 07:31:02;;;;;;;3.37;1.93;;;10.40;84.40;;;;;;5059221;28;20434;-46
2023/11/11 07:33:30;;;;;;;9.37;5.23;;;10.40;84.30;;;;;;5058519;28;20472;-47
2023/11/11 07:35:58;;;;;;;13.63;5.90;;;10.40;84.70;;;;;;5055024;28;20470;-47
2023/11/11 07:38:26;;;;;;;8.07;4.60;;;10.30;84.70;;;;;;5057411;28;21023;-48
2023/11/11 07:40:54;;;;;;;6.30;4.83;;;10.30;85.20;;;;;;5053968;28;20442;-47
2023/11/11 07:43:23;;;;;;;6.97;4.97;;;10.30;85.40;;;;;;5062948;28;20481;-45
2023/11/11 07:45:52;;;;;;;6.10;4.17;;;10.40;85.00;;;;;;5057063;28;21008;-49
2023/11/11 07:48:21;;;;;;;6.50;4.57;;;10.40;84.90;;;;;;5055392;28;20566;-49
2023/11/11 07:50:49;;;;;;;8.90;4.27;;;10.40;84.70;;;;;;5052964;28;21114;-45
2023/11/11 07:53:18;;;;;;;6.17;3.60;;;10.40;84.80;;;;;;5052402;28;20470;-46
2023/11/11 07:55:46;;;;;;;6.33;3.80;;;10.40;85.00;;;;;;5051482;28;20458;-48
2023/11/11 07:58:14;;;;;;;5.27;3.33;;;10.40;84.60;;;;;;5065137;28;20469;-45
2023/11/11 08:00:47;;;;;;;8.97;3.77;;;10.40;84.50;;;;;;5069211;28;20424;-46
2023/11/11 08:03:16;;;;;;;5.57;3.80;;;10.40;84.50;;;;;;5057675;28;20845;-45
2023/11/11 08:05:45;;;;;;;7.33;3.10;;;10.40;84.30;;;;;;5062668;28;20474;-47
2023/11/11 08:08:13;;;;;;;6.23;4.00;;;10.40;84.40;;;;;;5064884;28;20474;-46
2023/11/11 08:10:44;;;;;;;5.23;3.03;;;10.40;84.20;;;;;;5062268;28;20531;-44
2023/11/11 08:13:13;;;;;;;3.90;3.07;;;10.40;84.40;;;;;;5065187;28;20462;-46
2023/11/11 08:15:42;;;;;;;4.87;3.10;;;10.40;84.20;;;;;;5066598;28;20441;-44
2023/11/11 08:18:10;;;;;;;6.00;2.70;;;10.40;84.30;;;;;;5063028;28;20627;-44
2023/11/11 08:20:41;;;;;;;2.73;2.40;;;10.50;84.10;;;;;;5063278;28;20763;-46
2023/11/11 08:23:11;;;;;;;5.40;3.23;;;10.50;83.90;;;;;;5067982;28;21013;-46
2023/11/11 08:25:39;;;;;;;4.83;3.20;;;10.50;83.80;;;;;;5062160;28;20471;-44
2023/11/11 08:28:07;;;;;;;3.10;2.57;;;10.50;83.90;;;;;;5066717;28;20801;-47
2023/11/11 08:30:36;;;;;;;4.50;2.53;;;10.50;83.80;;;;;;5064080;28;20458;-46
2023/11/11 08:33:04;;;;;;;5.60;3.87;;;10.50;83.90;;;;;;5063192;28;20878;-44
2023/11/11 08:35:32;;;;;;;4.37;2.97;;;10.50;83.80;;;;;;5064065;28;20519;-45
2023/11/11 08:38:00;;;;;;;5.10;2.70;;;10.50;83.80;;;;;;5063264;28;20456;-44
2023/11/11 08:40:30;;;;;;;5.63;2.47;;;10.50;83.90;;;;;;5057293;28;20478;-47
2023/11/11 08:42:58;;;;;;;3.40;2.50;;;10.50;83.80;;;;;;5062767;28;20493;-47
2023/11/11 08:45:27;;;;;;;3.80;2.57;;;10.60;83.90;;;;;;5064682;28;20484;-45
2023/11/11 08:47:55;;;;;;;3.80;2.30;;;10.60;83.90;;;;;;5068259;28;20515;-47
2023/11/11 08:50:24;;;;;;;4.37;2.20;;;10.60;83.90;;;;;;5055721;28;20472;-48
2023/11/11 08:52:52;;;;;;;1.83;1.50;;;10.60;83.90;;;;;;5060179;28;20529;-46
2023/11/11 08:55:20;;;;;;;2.50;2.07;;;10.60;84.00;;;;;;5061059;28;20478;-47
2023/11/11 08:57:50;;;;;;;3.10;2.53;;;10.60;83.90;;;;;;5059490;28;20967;-45
2023/11/11 09:00:18;;;;;;;3.13;2.27;;;10.60;83.90;;;;;;5059449;28;20852;-44
2023/11/11 09:02:47;;;;;;;3.00;2.17;;;10.60;83.90;;;;;;5056623;28;20471;-45
2023/11/11 09:05:15;;;;;;;5.20;2.50;;;10.60;84.00;;;;;;5059531;28;20540;-47
2023/11/11 09:07:43;;;;;;;2.83;2.30;;;10.60;83.90;;;;;;5057157;28;20987;-47
2023/11/11 09:10:12;;;;;;;2.70;2.07;;;10.60;83.90;;;;;;5056743;28;20497;-46
2023/11/11 09:12:40;;;;;;;6.77;2.50;;;10.60;84.00;;;;;;5059491;28;20454;-48
2023/11/11 09:15:10;;;;;;;3.27;2.07;;;10.60;83.90;;;;;;5059412;28;20453;-48
2023/11/11 09:17:40;;;;;;;3.20;2.10;;;10.60;83.90;;;;;;5055048;28;20465;-45
2023/11/11 09:20:09;;;;;;;6.33;2.60;;;10.60;84.00;;;;;;5058836;28;20462;-47
2023/11/11 09:22:40;;;;;;;9.63;1.87;;;10.60;84.00;;;;;;5064866;28;20509;-47
2023/11/11 09:25:09;;;;;;;4.70;2.30;;;10.60;84.00;;;;;;5058366;28;20478;-47
2023/11/11 09:27:37;;;;;;;3.87;1.80;;;10.60;83.90;;;;;;5061237;28;20450;-47
2023/11/11 09:30:07;;;;;;;4.47;2.53;;;10.60;84.00;;;;;;5062323;28;20475;-46
2023/11/11 09:32:38;;;;;;;5.67;2.73;;;10.60;83.90;;;;;;5061341;28;20512;-48
2023/11/11 09:35:07;;;;;;;4.43;2.50;;;10.60;84.00;;;;;;5061637;28;20521;-48
2023/11/11 09:37:36;;;;;;;3.67;2.07;;;10.60;84.00;;;;;;5061615;28;20473;-49
2023/11/11 09:40:08;;;;;;;4.70;2.07;;;10.60;84.00;;;;;;5063584;28;20438;-46
2023/11/11 09:42:36;;;;;;;2.47;1.80;;;10.60;83.90;;;;;;5059617;28;20436;-46
2023/11/11 09:45:05;;;;;;;4.03;2.10;;;10.60;84.00;;;;;;5061392;28;21048;-48
2023/11/11 09:47:41;;;;;;;3.70;1.90;;;10.60;83.90;;;;;;5056817;28;20461;-47
2023/11/11 09:50:10;;;;;;;3.23;2.00;;;10.60;84.00;;;;;;5061040;28;20920;-45
2023/11/11 09:52:39;;;;;;;3.10;2.00;;;10.60;83.90;;;;;;5061024;28;20517;-49
2023/11/11 09:55:11;;;;;;;3.27;1.87;;;10.60;83.90;;;;;;5059894;28;20955;-49
2023/11/11 09:57:39;;;;;;;3.07;2.20;;;10.60;83.90;;;;;;5057720;28;20466;-49
2023/11/11 10:00:11;;;;;;;4.93;1.60;;;10.60;83.90;;;;;;5052598;28;20446;-47
2023/11/11 10:02:41;;;;;;;3.30;1.70;;;10.60;84.00;;;;;;5051740;28;20458;-49
2023/11/11 10:05:10;;;;;;;3.97;1.83;;;10.60;84.00;;;;;;5062291;28;20447;-47
2023/11/11 10:07:38;;;;;;;3.87;1.63;;;10.60;83.90;;;;;;5057866;28;20467;-47
2023/11/11 10:10:11;;;;;;;3.23;1.77;;;10.60;83.90;;;;;;5056751;28;20447;-46
2023/11/11 10:12:40;;;;;;;2.80;1.77;;;10.60;84.00;;;;;;5058431;28;20480;-46
2023/11/11 10:15:10;;;;;;;3.73;1.93;;;10.60;84.00;;;;;;5060362;28;20467;-49
2023/11/11 10:17:39;;;;;;;3.00;1.53;;;10.60;84.00;;;;;;5058585;28;20461;-49
2023/11/11 10:20:14;;;;;;;2.67;1.80;;;10.60;83.90;;;;;;5058898;28;20450;-49
2023/11/11 10:22:45;;;;;;;2.37;1.73;;;10.60;83.90;;;;;;5056879;28;20455;-47
2023/11/11 10:25:17;;;;;;;5.37;1.80;;;10.60;84.00;;;;;;5059791;28;20962;-46
2023/11/11 10:27:50;;;;;;;5.27;2.00;;;10.50;83.80;;;;;;5066088;28;20469;-46
2023/11/11 10:30:19;;;;;;;2.40;1.33;;;10.50;83.80;;;;;;5064558;28;20427;-48
2023/11/11 10:32:48;;;;;;;2.80;2.00;;;10.50;83.90;;;;;;5059900;28;20442;-50
2023/11/11 10:35:19;;;;;;;2.20;1.63;;;10.50;83.80;;;;;;5064706;28;20515;-50
2023/11/11 10:37:50;;;;;;;3.13;2.90;;;10.50;83.80;;;;;;5067033;28;20547;-49
2023/11/11 10:40:19;;;;;;;5.30;2.13;;;10.50;83.80;;;;;;5059658;28;20473;-46
2023/11/11 10:42:50;;;;;;;3.50;2.10;;;10.50;83.80;;;;;;5063038;28;20473;-47
2023/11/11 10:45:18;;;;;;;3.03;1.87;;;10.50;83.90;;;;;;5063499;28;20441;-47
2023/11/11 10:47:47;;;;;;;3.40;2.03;;;10.50;83.80;;;;;;5066454;28;20516;-47
2023/11/11 10:50:15;;;;;;;3.00;2.40;;;10.50;83.90;;;;;;5064824;28;20442;-49
2023/11/11 10:52:45;;;;;;;3.70;2.10;;;10.50;83.90;;;;;;5065092;28;20608;-51
2023/11/11 10:55:15;;;;;;;3.57;2.67;;;10.50;83.90;;;;;;5061611;28;20454;-47
2023/11/11 10:57:47;;;;;;;3.67;2.50;;;10.50;83.90;;;;;;5065251;28;20470;-47
2023/11/11 11:00:20;;;;;;;4.43;2.50;;;10.50;83.90;;;;;;5066515;28;20435;-48
2023/11/11 11:02:52;;;;;;;4.07;2.53;;;10.40;84.10;;;;;;5061495;28;20458;-50
2023/11/11 11:05:30;;;;;;;5.07;2.20;;;10.40;84.70;;;;;;5064166;28;20525;-46
2023/11/11 11:08:06;;;;;;;5.40;2.17;;;10.40;84.50;;;;;;5066211;28;21048;-48
2023/11/11 11:10:46;;;;;;;3.23;2.13;;;10.40;84.20;;;;;;5068324;28;20452;-48
2023/11/11 11:13:18;;;;;;;3.90;2.03;;;10.50;84.40;;;;;;5049056;28;20871;-47
2023/11/11 11:15:47;;;;;;;5.80;2.60;;;10.50;83.80;;;;;;5070556;28;20450;-47
2023/11/11 11:18:23;;;;;;;6.73;2.60;;;10.50;83.90;;;;;;5064385;28;21014;-48
2023/11/11 11:20:54;;;;;;;4.37;2.53;;;10.50;83.80;;;;;;5068730;28;20426;-47
2023/11/11 11:23:24;;;;;;;3.83;2.40;;;10.50;83.90;;;;;;5065986;28;20478;-48
2023/11/11 11:25:52;;;;;;;5.67;2.50;;;10.50;84.00;;;;;;5065369;28;20450;-48
2023/11/11 11:28:24;;;;;;;5.10;3.10;;;10.40;84.10;;;;;;5064240;28;20477;-46
2023/11/11 11:30:55;;;;;;;2.80;2.07;;;10.40;85.20;;;;;;5061655;28;21860;-47
2023/11/11 11:33:26;;;;;;;3.00;2.00;;;10.40;84.80;;;;;;5061244;28;20457;-46
2023/11/11 11:36:01;;;;;;;3.23;1.83;;;10.40;84.70;;;;;;5062115;28;20545;-51
2023/11/11 11:38:35;;;;;;;3.70;2.13;;;10.40;84.80;;;;;;5065782;28;20462;-47
2023/11/11 11:41:10;;;;;;;3.43;2.37;;;10.40;84.80;;;;;;5063208;28;20447;-47
2023/11/11 11:43:39;;;;;;;3.53;1.53;;;10.40;84.70;;;;;;5056222;28;20918;-48
2023/11/11 11:46:08;;;;;;;3.90;1.63;;;10.40;84.60;;;;;;5060926;28;20470;-47
2023/11/11 11:48:38;;;;;;;4.00;1.87;;;10.40;84.50;;;;;;5060532;28;20814;-47
2023/11/11 11:51:12;;;;;;;4.33;2.13;;;10.40;84.60;;;;;;5069301;28;20978;-47
2023/11/11 11:53:43;;;;;;;3.43;2.00;;;10.40;84.50;;;;;;5055046;28;20578;-49
2023/11/11 11:56:26;;;;;;;3.00;1.70;;;10.40;84.40;;;;;;5058198;28;20470;-44
2023/11/11 11:58:58;;;;;;;2.87;1.40;;;10.40;84.00;;;;;;5054669;28;20828;-46
2023/11/11 12:01:30;;;;;;;3.50;1.67;;;10.40;84.20;;;;;;5062272;28;20430;-49
2023/11/11 12:04:00;;;;;;;4.80;1.67;;;10.40;84.20;;;;;;5057035;28;20483;-47
2023/11/11 12:06:29;;;;;;;5.13;1.60;;;10.40;84.20;;;;;;5056511;28;20533;-49
2023/11/11 12:09:00;;;;;;;3.50;1.93;;;10.40;84.40;;;;;;5057596;28;20810;-45
2023/11/11 12:11:30;;;;;;;2.27;1.30;;;10.40;84.60;;;;;;5052683;28;20435;-49
2023/11/11 12:14:04;;;;;;;2.23;1.20;;;10.40;84.70;;;;;;5063641;28;20454;-47
2023/11/11 12:16:42;;;;;;;3.63;1.70;;;10.40;84.70;;;;;;5062942;28;20477;-47
2023/11/11 12:19:12;;;;;;;2.10;1.50;;;10.40;85.20;;;;;;5061494;28;20497;-47
2023/11/11 12:21:43;;;;;;;2.63;1.50;;;10.40;86.50;;;;;;5062529;28;20816;-47
2023/11/11 12:24:14;;;;;;;3.73;1.60;;;10.40;85.90;;;;;;5059905;28;20471;-44
2023/11/11 12:26:43;;;;;;;2.80;1.77;;;10.40;85.80;;;;;;5067952;28;20454;-47
2023/11/11 12:29:12;;;;;;;2.70;1.37;;;10.40;85.70;;;;;;5065577;28;20506;-46
2023/11/11 12:31:47;;;;;;;2.70;1.73;;;10.40;85.70;;;;;;5060036;28;20952;-49
2023/11/11 12:34:20;;;;;;;2.10;1.50;;;10.40;85.70;;;;;;5060665;28;20473;-46
2023/11/11 12:36:49;;;;;;;2.33;1.30;;;10.40;85.70;;;;;;5066276;28;20503;-45
2023/11/11 12:39:18;;;;;;;2.20;1.20;;;10.40;85.50;;;;;;5060480;28;20475;-49
2023/11/11 12:41:52;;;;;;;2.60;1.37;;;10.40;85.60;;;;;;5060664;28;20874;-46
2023/11/11 12:44:21;;;;;;;4.40;2.53;;;10.40;85.70;;;;;;5064034;28;20840;-47
2023/11/11 12:46:49;;;;;;;8.83;1.77;;;10.40;85.90;;;;;;5058009;28;20466;-47
2023/11/11 12:49:20;;;;;;;3.23;1.40;;;10.40;86.10;;;;;;5062210;28;20472;-47
2023/11/11 12:51:50;;;;;;;3.97;1.23;;;10.40;85.70;;;;;;5062515;28;20537;-47
2023/11/11 12:54:31;;;;;;;3.77;1.53;;;10.40;85.60;;;;;;5062633;28;20471;-46
2023/11/11 12:56:59;;;;;;;2.10;1.80;;;10.40;85.50;;;;;;5067359;28;20447;-46
2023/11/11 12:59:27;;;;;;;2.77;1.10;;;10.40;85.40;;;;;;5060157;28;21884;-46